sensor_id;sensor_type;location;lat;lon;timestamp;temperature;humidity
23987;DHT22;12514;52.140;5.602;2022-07-09T00:02:13;18.60;99.90
23987;DHT22;12514;52.140;5.602;2022-07-09T00:04:38;18.50;99.90
23987;DHT22;12514;52.140;5.602;2022-07-09T00:07:04;18.20;99.90
23987;DHT22;12514;52.140;5.602;2022-07-09T00:09:30;18.10;99.90
23987;DHT22;12514;52.140;5.602;2022-07-09T00:11:55;18.00;99.90
23987;DHT22;12514;52.140;5.602;2022-07-09T00:14:22;18.00;99.90
23987;DHT22;12514;52.140;5.602;2022-07-09T00:16:48;18.10;99.90
23987;DHT22;12514;52.140;5.602;2022-07-09T00:22:35;18.00;99.90
23987;DHT22;12514;52.140;5.602;2022-07-09T00:25:01;17.90;99.90
23987;DHT22;12514;52.140;5.602;2022-07-09T00:27:27;17.80;99.90
23987;DHT22;12514;52.140;5.602;2022-07-09T00:29:52;17.70;99.90
23987;DHT22;12514;52.140;5.602;2022-07-09T00:32:18;17.70;99.90
23987;DHT22;12514;52.140;5.602;2022-07-09T00:34:44;17.60;99.90
23987;DHT22;12514;52.140;5.602;2022-07-09T00:37:09;17.60;99.90
23987;DHT22;12514;52.140;5.602;2022-07-09T00:39:35;17.70;99.90
23987;DHT22;12514;52.140;5.602;2022-07-09T00:42:05;17.90;99.90
23987;DHT22;12514;52.140;5.602;2022-07-09T00:44:31;17.90;99.90
23987;DHT22;12514;52.140;5.602;2022-07-09T00:46:56;17.90;99.90
23987;DHT22;12514;52.140;5.602;2022-07-09T00:52:44;18.00;99.90
23987;DHT22;12514;52.140;5.602;2022-07-09T00:55:11;18.00;99.90
23987;DHT22;12514;52.140;5.602;2022-07-09T00:57:39;18.00;99.90
23987;DHT22;12514;52.140;5.602;2022-07-09T01:00:06;17.90;99.90
23987;DHT22;12514;52.140;5.602;2022-07-09T01:02:32;17.90;99.90
23987;DHT22;12514;52.140;5.602;2022-07-09T01:04:57;17.90;99.90
23987;DHT22;12514;52.140;5.602;2022-07-09T01:07:23;17.90;99.90
23987;DHT22;12514;52.140;5.602;2022-07-09T01:09:48;17.90;99.90
23987;DHT22;12514;52.140;5.602;2022-07-09T01:12:14;17.80;99.90
23987;DHT22;12514;52.140;5.602;2022-07-09T01:14:40;17.80;99.90
23987;DHT22;12514;52.140;5.602;2022-07-09T01:17:06;17.80;99.90
23987;DHT22;12514;52.140;5.602;2022-07-09T01:22:53;17.70;99.90
23987;DHT22;12514;52.140;5.602;2022-07-09T01:25:19;17.80;99.90
23987;DHT22;12514;52.140;5.602;2022-07-09T01:27:47;17.80;99.90
23987;DHT22;12514;52.140;5.602;2022-07-09T01:30:24;17.80;99.90
23987;DHT22;12514;52.140;5.602;2022-07-09T01:32:50;17.80;99.90
23987;DHT22;12514;52.140;5.602;2022-07-09T01:35:16;17.80;99.90
23987;DHT22;12514;52.140;5.602;2022-07-09T01:37:42;17.80;99.90
23987;DHT22;12514;52.140;5.602;2022-07-09T01:40:08;17.50;99.90
23987;DHT22;12514;52.140;5.602;2022-07-09T01:42:33;17.30;99.90
23987;DHT22;12514;52.140;5.602;2022-07-09T01:44:59;17.10;99.90
23987;DHT22;12514;52.140;5.602;2022-07-09T01:47:25;17.00;99.90
23987;DHT22;12514;52.140;5.602;2022-07-09T01:49:50;17.20;99.90
23987;DHT22;12514;52.140;5.602;2022-07-09T01:52:16;17.40;99.90
23987;DHT22;12514;52.140;5.602;2022-07-09T01:54:42;17.50;99.90
23987;DHT22;12514;52.140;5.602;2022-07-09T01:57:07;17.60;99.90
23987;DHT22;12514;52.140;5.602;2022-07-09T01:59:33;17.80;99.90
23987;DHT22;12514;52.140;5.602;2022-07-09T02:01:58;17.60;99.90
23987;DHT22;12514;52.140;5.602;2022-07-09T02:07:46;17.50;99.90
23987;DHT22;12514;52.140;5.602;2022-07-09T02:10:12;17.40;99.90
23987;DHT22;12514;52.140;5.602;2022-07-09T02:12:38;17.40;99.90
23987;DHT22;12514;52.140;5.602;2022-07-09T02:15:05;17.30;99.90
23987;DHT22;12514;52.140;5.602;2022-07-09T02:17:32;17.10;99.90
23987;DHT22;12514;52.140;5.602;2022-07-09T02:19:58;17.10;99.90
23987;DHT22;12514;52.140;5.602;2022-07-09T02:22:23;17.00;99.90
23987;DHT22;12514;52.140;5.602;2022-07-09T02:24:49;16.80;99.90
23987;DHT22;12514;52.140;5.602;2022-07-09T02:27:14;16.80;99.90
23987;DHT22;12514;52.140;5.602;2022-07-09T02:29:40;16.90;99.90
23987;DHT22;12514;52.140;5.602;2022-07-09T02:32:06;17.00;99.90
23987;DHT22;12514;52.140;5.602;2022-07-09T02:37:54;17.10;99.90
23987;DHT22;12514;52.140;5.602;2022-07-09T02:40:19;17.10;99.90
23987;DHT22;12514;52.140;5.602;2022-07-09T02:42:45;17.00;99.90
23987;DHT22;12514;52.140;5.602;2022-07-09T02:45:10;16.90;99.90
23987;DHT22;12514;52.140;5.602;2022-07-09T02:47:36;16.70;99.90
23987;DHT22;12514;52.140;5.602;2022-07-09T02:50:02;16.60;99.90
23987;DHT22;12514;52.140;5.602;2022-07-09T02:52:27;16.70;99.90
23987;DHT22;12514;52.140;5.602;2022-07-09T02:54:53;16.90;99.90
23987;DHT22;12514;52.140;5.602;2022-07-09T02:57:18;17.10;99.90
23987;DHT22;12514;52.140;5.602;2022-07-09T02:59:45;17.30;99.90
23987;DHT22;12514;52.140;5.602;2022-07-09T03:02:10;17.30;99.90
23987;DHT22;12514;52.140;5.602;2022-07-09T03:07:58;17.40;99.90
23987;DHT22;12514;52.140;5.602;2022-07-09T03:10:24;17.00;99.90
23987;DHT22;12514;52.140;5.602;2022-07-09T03:12:49;17.00;99.90
23987;DHT22;12514;52.140;5.602;2022-07-09T03:15:15;17.20;99.90
23987;DHT22;12514;52.140;5.602;2022-07-09T03:24:07;17.40;99.90
23987;DHT22;12514;52.140;5.602;2022-07-09T03:26:34;17.20;99.90
23987;DHT22;12514;52.140;5.602;2022-07-09T03:29:00;16.90;99.90
23987;DHT22;12514;52.140;5.602;2022-07-09T03:31:25;16.80;99.90
23987;DHT22;12514;52.140;5.602;2022-07-09T03:33:51;16.80;99.90
23987;DHT22;12514;52.140;5.602;2022-07-09T03:36:19;17.00;99.90
23987;DHT22;12514;52.140;5.602;2022-07-09T03:38:44;17.10;99.90
23987;DHT22;12514;52.140;5.602;2022-07-09T03:41:10;17.00;99.90
23987;DHT22;12514;52.140;5.602;2022-07-09T03:43:35;17.20;99.90
23987;DHT22;12514;52.140;5.602;2022-07-09T03:46:01;17.30;99.90
23987;DHT22;12514;52.140;5.602;2022-07-09T03:48:27;17.30;99.90
23987;DHT22;12514;52.140;5.602;2022-07-09T03:50:52;17.40;99.90
23987;DHT22;12514;52.140;5.602;2022-07-09T03:53:18;17.50;99.90
23987;DHT22;12514;52.140;5.602;2022-07-09T03:55:43;17.50;99.90
23987;DHT22;12514;52.140;5.602;2022-07-09T03:58:09;17.60;99.90
23987;DHT22;12514;52.140;5.602;2022-07-09T04:00:34;17.70;99.90
23987;DHT22;12514;52.140;5.602;2022-07-09T04:03:00;17.70;99.90
23987;DHT22;12514;52.140;5.602;2022-07-09T04:05:25;17.80;99.90
23987;DHT22;12514;52.140;5.602;2022-07-09T04:07:51;17.80;99.90
23987;DHT22;12514;52.140;5.602;2022-07-09T04:10:17;17.70;99.90
23987;DHT22;12514;52.140;5.602;2022-07-09T04:12:42;17.70;99.90
23987;DHT22;12514;52.140;5.602;2022-07-09T04:15:08;17.80;99.90
23987;DHT22;12514;52.140;5.602;2022-07-09T04:17:34;17.80;99.90
23987;DHT22;12514;52.140;5.602;2022-07-09T04:23:22;17.90;99.90
23987;DHT22;12514;52.140;5.602;2022-07-09T04:25:47;17.90;99.90
23987;DHT22;12514;52.140;5.602;2022-07-09T04:28:16;17.80;99.90
23987;DHT22;12514;52.140;5.602;2022-07-09T04:30:42;17.80;99.90
23987;DHT22;12514;52.140;5.602;2022-07-09T04:33:08;17.90;99.90
23987;DHT22;12514;52.140;5.602;2022-07-09T04:35:33;17.80;99.90
23987;DHT22;12514;52.140;5.602;2022-07-09T04:38:01;17.90;99.90
23987;DHT22;12514;52.140;5.602;2022-07-09T04:40:26;18.00;99.90
23987;DHT22;12514;52.140;5.602;2022-07-09T04:42:52;18.10;99.90
23987;DHT22;12514;52.140;5.602;2022-07-09T04:45:17;18.20;99.90
23987;DHT22;12514;52.140;5.602;2022-07-09T04:47:43;18.20;99.90
23987;DHT22;12514;52.140;5.602;2022-07-09T04:53:30;18.30;99.90
23987;DHT22;12514;52.140;5.602;2022-07-09T04:55:56;18.30;99.90
23987;DHT22;12514;52.140;5.602;2022-07-09T04:58:22;18.40;99.90
23987;DHT22;12514;52.140;5.602;2022-07-09T05:00:47;18.40;99.90
23987;DHT22;12514;52.140;5.602;2022-07-09T05:03:13;18.40;99.90
23987;DHT22;12514;52.140;5.602;2022-07-09T05:05:38;18.40;99.90
23987;DHT22;12514;52.140;5.602;2022-07-09T05:08:04;18.40;99.90
23987;DHT22;12514;52.140;5.602;2022-07-09T05:10:30;18.40;99.90
23987;DHT22;12514;52.140;5.602;2022-07-09T05:12:55;18.50;99.90
23987;DHT22;12514;52.140;5.602;2022-07-09T05:15:21;18.40;99.90
23987;DHT22;12514;52.140;5.602;2022-07-09T05:17:47;18.30;99.90
23987;DHT22;12514;52.140;5.602;2022-07-09T05:23:35;18.50;99.90
23987;DHT22;12514;52.140;5.602;2022-07-09T05:26:01;18.60;99.90
23987;DHT22;12514;52.140;5.602;2022-07-09T05:28:26;18.60;99.90
23987;DHT22;12514;52.140;5.602;2022-07-09T05:30:52;18.70;99.90
23987;DHT22;12514;52.140;5.602;2022-07-09T05:33:18;18.60;99.90
23987;DHT22;12514;52.140;5.602;2022-07-09T05:35:44;18.70;99.90
23987;DHT22;12514;52.140;5.602;2022-07-09T05:38:10;18.70;99.90
23987;DHT22;12514;52.140;5.602;2022-07-09T05:40:36;18.70;99.90
23987;DHT22;12514;52.140;5.602;2022-07-09T05:43:02;18.90;99.90
23987;DHT22;12514;52.140;5.602;2022-07-09T05:45:27;18.90;99.90
23987;DHT22;12514;52.140;5.602;2022-07-09T05:47:53;18.90;99.90
23987;DHT22;12514;52.140;5.602;2022-07-09T05:53:40;18.90;99.90
23987;DHT22;12514;52.140;5.602;2022-07-09T05:56:06;18.90;99.90
23987;DHT22;12514;52.140;5.602;2022-07-09T05:58:32;19.00;99.90
23987;DHT22;12514;52.140;5.602;2022-07-09T06:00:58;19.00;99.90
23987;DHT22;12514;52.140;5.602;2022-07-09T06:03:24;18.90;99.90
23987;DHT22;12514;52.140;5.602;2022-07-09T06:05:49;19.10;99.90
23987;DHT22;12514;52.140;5.602;2022-07-09T06:08:15;19.30;99.90
23987;DHT22;12514;52.140;5.602;2022-07-09T06:10:41;19.30;99.90
23987;DHT22;12514;52.140;5.602;2022-07-09T06:13:06;19.40;99.90
23987;DHT22;12514;52.140;5.602;2022-07-09T06:15:33;19.50;99.90
23987;DHT22;12514;52.140;5.602;2022-07-09T06:17:58;19.60;99.90
23987;DHT22;12514;52.140;5.602;2022-07-09T06:23:46;19.80;99.90
23987;DHT22;12514;52.140;5.602;2022-07-09T06:26:11;19.70;99.90
23987;DHT22;12514;52.140;5.602;2022-07-09T06:28:37;19.70;99.90
23987;DHT22;12514;52.140;5.602;2022-07-09T06:31:03;19.80;99.90
23987;DHT22;12514;52.140;5.602;2022-07-09T06:33:31;19.90;99.90
23987;DHT22;12514;52.140;5.602;2022-07-09T06:39:55;19.70;99.90
23987;DHT22;12514;52.140;5.602;2022-07-09T06:42:22;19.90;99.90
23987;DHT22;12514;52.140;5.602;2022-07-09T06:44:48;20.00;99.90
23987;DHT22;12514;52.140;5.602;2022-07-09T06:47:14;20.00;99.90
23987;DHT22;12514;52.140;5.602;2022-07-09T06:49:40;20.20;99.90
23987;DHT22;12514;52.140;5.602;2022-07-09T06:52:06;20.30;99.90
23987;DHT22;12514;52.140;5.602;2022-07-09T06:54:33;20.30;99.90
23987;DHT22;12514;52.140;5.602;2022-07-09T06:56:58;20.20;99.90
23987;DHT22;12514;52.140;5.602;2022-07-09T06:59:24;20.00;99.90
23987;DHT22;12514;52.140;5.602;2022-07-09T07:01:50;20.20;99.90
23987;DHT22;12514;52.140;5.602;2022-07-09T07:04:16;20.30;99.90
23987;DHT22;12514;52.140;5.602;2022-07-09T07:06:42;20.30;99.90
23987;DHT22;12514;52.140;5.602;2022-07-09T07:09:08;20.50;99.90
23987;DHT22;12514;52.140;5.602;2022-07-09T07:11:34;20.40;99.90
23987;DHT22;12514;52.140;5.602;2022-07-09T07:14:00;20.40;99.90
23987;DHT22;12514;52.140;5.602;2022-07-09T07:16:26;20.70;99.90
23987;DHT22;12514;52.140;5.602;2022-07-09T07:18:51;20.90;99.90
23987;DHT22;12514;52.140;5.602;2022-07-09T07:21:17;20.70;99.90
23987;DHT22;12514;52.140;5.602;2022-07-09T07:23:43;20.60;99.90
23987;DHT22;12514;52.140;5.602;2022-07-09T07:26:08;20.70;99.90
23987;DHT22;12514;52.140;5.602;2022-07-09T07:28:34;20.70;99.90
23987;DHT22;12514;52.140;5.602;2022-07-09T07:31:03;20.70;99.90
23987;DHT22;12514;52.140;5.602;2022-07-09T07:33:29;20.80;99.90
23987;DHT22;12514;52.140;5.602;2022-07-09T07:39:16;21.00;99.90
23987;DHT22;12514;52.140;5.602;2022-07-09T07:41:41;21.10;99.90
23987;DHT22;12514;52.140;5.602;2022-07-09T07:44:07;21.10;99.90
23987;DHT22;12514;52.140;5.602;2022-07-09T07:46:33;21.00;99.90
23987;DHT22;12514;52.140;5.602;2022-07-09T07:48:59;21.10;99.90
23987;DHT22;12514;52.140;5.602;2022-07-09T07:51:24;21.20;99.90
23987;DHT22;12514;52.140;5.602;2022-07-09T07:53:50;21.00;99.90
23987;DHT22;12514;52.140;5.602;2022-07-09T07:56:16;21.00;99.90
23987;DHT22;12514;52.140;5.602;2022-07-09T07:58:41;21.10;99.90
23987;DHT22;12514;52.140;5.602;2022-07-09T08:01:07;21.00;99.90
23987;DHT22;12514;52.140;5.602;2022-07-09T08:03:33;21.10;99.90
23987;DHT22;12514;52.140;5.602;2022-07-09T08:09:20;20.90;99.90
23987;DHT22;12514;52.140;5.602;2022-07-09T08:11:46;21.00;99.90
23987;DHT22;12514;52.140;5.602;2022-07-09T08:14:12;21.10;99.90
23987;DHT22;12514;52.140;5.602;2022-07-09T08:16:37;20.90;99.90
23987;DHT22;12514;52.140;5.602;2022-07-09T08:19:03;20.90;99.90
23987;DHT22;12514;52.140;5.602;2022-07-09T08:24:50;20.80;99.90
23987;DHT22;12514;52.140;5.602;2022-07-09T08:27:16;21.00;99.90
23987;DHT22;12514;52.140;5.602;2022-07-09T08:29:41;20.90;99.90
23987;DHT22;12514;52.140;5.602;2022-07-09T08:32:08;20.90;99.90
23987;DHT22;12514;52.140;5.602;2022-07-09T08:34:33;20.80;99.90
23987;DHT22;12514;52.140;5.602;2022-07-09T08:36:59;21.00;99.90
23987;DHT22;12514;52.140;5.602;2022-07-09T08:39:25;21.00;99.90
23987;DHT22;12514;52.140;5.602;2022-07-09T08:41:50;21.20;99.90
23987;DHT22;12514;52.140;5.602;2022-07-09T08:44:17;21.10;99.90
23987;DHT22;12514;52.140;5.602;2022-07-09T08:46:45;21.00;99.90
23987;DHT22;12514;52.140;5.602;2022-07-09T08:49:11;21.20;99.90
23987;DHT22;12514;52.140;5.602;2022-07-09T08:55:02;21.10;99.90
23987;DHT22;12514;52.140;5.602;2022-07-09T08:57:28;21.10;99.90
23987;DHT22;12514;52.140;5.602;2022-07-09T08:59:53;20.70;99.90
23987;DHT22;12514;52.140;5.602;2022-07-09T09:02:19;20.50;99.90
23987;DHT22;12514;52.140;5.602;2022-07-09T09:04:45;20.60;99.90
23987;DHT22;12514;52.140;5.602;2022-07-09T09:07:18;20.80;99.90
23987;DHT22;12514;52.140;5.602;2022-07-09T09:09:45;20.80;99.90
23987;DHT22;12514;52.140;5.602;2022-07-09T09:12:11;20.90;99.90
23987;DHT22;12514;52.140;5.602;2022-07-09T09:14:37;21.10;99.90
23987;DHT22;12514;52.140;5.602;2022-07-09T09:17:07;21.30;99.90
23987;DHT22;12514;52.140;5.602;2022-07-09T09:19:35;21.30;99.90
23987;DHT22;12514;52.140;5.602;2022-07-09T09:25:42;21.50;99.90
23987;DHT22;12514;52.140;5.602;2022-07-09T09:28:08;21.70;99.90
23987;DHT22;12514;52.140;5.602;2022-07-09T09:30:41;21.90;99.90
23987;DHT22;12514;52.140;5.602;2022-07-09T09:33:07;22.10;99.90
23987;DHT22;12514;52.140;5.602;2022-07-09T09:35:34;21.90;99.90
23987;DHT22;12514;52.140;5.602;2022-07-09T09:38:00;21.90;99.90
23987;DHT22;12514;52.140;5.602;2022-07-09T09:40:27;22.00;99.90
23987;DHT22;12514;52.140;5.602;2022-07-09T09:42:52;22.10;99.90
23987;DHT22;12514;52.140;5.602;2022-07-09T09:45:18;22.00;99.90
23987;DHT22;12514;52.140;5.602;2022-07-09T09:47:48;22.00;99.90
23987;DHT22;12514;52.140;5.602;2022-07-09T09:50:22;21.90;99.90
23987;DHT22;12514;52.140;5.602;2022-07-09T09:52:50;21.50;99.90
23987;DHT22;12514;52.140;5.602;2022-07-09T09:55:17;21.60;99.90
23987;DHT22;12514;52.140;5.602;2022-07-09T09:57:43;21.50;99.90
23987;DHT22;12514;52.140;5.602;2022-07-09T10:00:11;21.50;99.90
23987;DHT22;12514;52.140;5.602;2022-07-09T10:02:38;21.60;99.90
23987;DHT22;12514;52.140;5.602;2022-07-09T10:05:04;21.60;99.90
23987;DHT22;12514;52.140;5.602;2022-07-09T10:07:30;21.90;99.90
23987;DHT22;12514;52.140;5.602;2022-07-09T10:09:58;21.90;99.90
23987;DHT22;12514;52.140;5.602;2022-07-09T10:12:33;21.80;99.90
23987;DHT22;12514;52.140;5.602;2022-07-09T10:14:59;21.90;99.90
23987;DHT22;12514;52.140;5.602;2022-07-09T10:17:26;21.80;99.90
23987;DHT22;12514;52.140;5.602;2022-07-09T10:19:53;22.10;99.90
23987;DHT22;12514;52.140;5.602;2022-07-09T10:25:45;22.10;99.90
23987;DHT22;12514;52.140;5.602;2022-07-09T10:28:17;22.30;99.90
23987;DHT22;12514;52.140;5.602;2022-07-09T10:30:42;21.90;99.90
23987;DHT22;12514;52.140;5.602;2022-07-09T10:33:10;22.10;99.90
23987;DHT22;12514;52.140;5.602;2022-07-09T10:35:48;22.00;99.90
23987;DHT22;12514;52.140;5.602;2022-07-09T10:38:15;22.10;99.90
23987;DHT22;12514;52.140;5.602;2022-07-09T10:40:43;21.80;99.90
23987;DHT22;12514;52.140;5.602;2022-07-09T10:43:10;21.80;99.90
23987;DHT22;12514;52.140;5.602;2022-07-09T10:45:45;21.40;99.90
23987;DHT22;12514;52.140;5.602;2022-07-09T10:48:15;21.30;99.90
23987;DHT22;12514;52.140;5.602;2022-07-09T10:50:45;21.50;99.90
23987;DHT22;12514;52.140;5.602;2022-07-09T10:53:14;21.90;99.90
23987;DHT22;12514;52.140;5.602;2022-07-09T10:55:43;21.90;99.90
23987;DHT22;12514;52.140;5.602;2022-07-09T10:58:20;22.00;99.90
23987;DHT22;12514;52.140;5.602;2022-07-09T11:01:00;22.00;99.90
23987;DHT22;12514;52.140;5.602;2022-07-09T11:03:27;22.00;99.90
23987;DHT22;12514;52.140;5.602;2022-07-09T11:05:53;22.00;99.90
23987;DHT22;12514;52.140;5.602;2022-07-09T11:08:19;22.10;99.90
23987;DHT22;12514;52.140;5.602;2022-07-09T11:10:45;22.00;99.90
23987;DHT22;12514;52.140;5.602;2022-07-09T11:13:11;22.00;99.90
23987;DHT22;12514;52.140;5.602;2022-07-09T11:15:38;22.20;99.90
23987;DHT22;12514;52.140;5.602;2022-07-09T11:18:05;21.90;99.90
23987;DHT22;12514;52.140;5.602;2022-07-09T11:20:45;21.90;99.90
23987;DHT22;12514;52.140;5.602;2022-07-09T11:23:11;22.00;99.90
23987;DHT22;12514;52.140;5.602;2022-07-09T11:25:37;21.90;99.90
23987;DHT22;12514;52.140;5.602;2022-07-09T11:28:03;21.70;99.90
23987;DHT22;12514;52.140;5.602;2022-07-09T11:30:30;21.80;99.90
23987;DHT22;12514;52.140;5.602;2022-07-09T11:32:57;21.70;99.90
23987;DHT22;12514;52.140;5.602;2022-07-09T11:41:53;22.30;99.90
23987;DHT22;12514;52.140;5.602;2022-07-09T11:44:25;21.90;99.90
23987;DHT22;12514;52.140;5.602;2022-07-09T11:47:10;21.60;99.90
23987;DHT22;12514;52.140;5.602;2022-07-09T11:49:43;21.70;99.90
23987;DHT22;12514;52.140;5.602;2022-07-09T11:52:22;21.90;99.90
23987;DHT22;12514;52.140;5.602;2022-07-09T11:57:28;21.80;99.90
23987;DHT22;12514;52.140;5.602;2022-07-09T11:59:54;21.80;99.90
23987;DHT22;12514;52.140;5.602;2022-07-09T12:02:31;22.00;99.90
23987;DHT22;12514;52.140;5.602;2022-07-09T12:05:02;22.30;99.90
23987;DHT22;12514;52.140;5.602;2022-07-09T12:07:32;22.50;99.90
23987;DHT22;12514;52.140;5.602;2022-07-09T12:10:02;22.50;99.90
23987;DHT22;12514;52.140;5.602;2022-07-09T12:12:30;22.50;99.90
23987;DHT22;12514;52.140;5.602;2022-07-09T12:14:56;22.40;99.90
23987;DHT22;12514;52.140;5.602;2022-07-09T12:17:26;22.60;99.90
23987;DHT22;12514;52.140;5.602;2022-07-09T12:19:52;22.90;99.90
23987;DHT22;12514;52.140;5.602;2022-07-09T12:22:19;22.80;99.90
23987;DHT22;12514;52.140;5.602;2022-07-09T12:24:45;22.70;99.90
23987;DHT22;12514;52.140;5.602;2022-07-09T12:27:11;23.00;99.90
23987;DHT22;12514;52.140;5.602;2022-07-09T12:29:37;22.90;99.90
23987;DHT22;12514;52.140;5.602;2022-07-09T12:32:03;22.80;99.90
23987;DHT22;12514;52.140;5.602;2022-07-09T12:34:30;22.80;99.90
23987;DHT22;12514;52.140;5.602;2022-07-09T12:36:56;23.10;99.90
23987;DHT22;12514;52.140;5.602;2022-07-09T12:39:22;23.30;99.90
23987;DHT22;12514;52.140;5.602;2022-07-09T12:41:48;23.20;99.90
23987;DHT22;12514;52.140;5.602;2022-07-09T12:44:13;23.00;99.90
23987;DHT22;12514;52.140;5.602;2022-07-09T12:46:39;23.00;99.90
23987;DHT22;12514;52.140;5.602;2022-07-09T12:49:05;23.20;99.90
23987;DHT22;12514;52.140;5.602;2022-07-09T12:51:30;22.90;99.90
23987;DHT22;12514;52.140;5.602;2022-07-09T12:53:56;22.70;99.90
23987;DHT22;12514;52.140;5.602;2022-07-09T12:56:22;22.50;99.90
23987;DHT22;12514;52.140;5.602;2022-07-09T12:58:47;22.50;99.90
23987;DHT22;12514;52.140;5.602;2022-07-09T13:01:13;22.40;99.90
23987;DHT22;12514;52.140;5.602;2022-07-09T13:03:39;22.60;99.90
23987;DHT22;12514;52.140;5.602;2022-07-09T13:06:04;22.30;99.90
23987;DHT22;12514;52.140;5.602;2022-07-09T13:08:50;22.40;99.90
23987;DHT22;12514;52.140;5.602;2022-07-09T13:11:16;22.50;99.90
23987;DHT22;12514;52.140;5.602;2022-07-09T13:13:41;22.60;99.90
23987;DHT22;12514;52.140;5.602;2022-07-09T13:16:07;22.50;99.90
23987;DHT22;12514;52.140;5.602;2022-07-09T13:18:33;22.10;99.90
23987;DHT22;12514;52.140;5.602;2022-07-09T13:20:58;22.30;99.90
23987;DHT22;12514;52.140;5.602;2022-07-09T13:26:46;22.40;99.90
23987;DHT22;12514;52.140;5.602;2022-07-09T13:29:11;22.50;99.90
23987;DHT22;12514;52.140;5.602;2022-07-09T13:31:37;22.80;99.90
23987;DHT22;12514;52.140;5.602;2022-07-09T13:34:03;23.10;99.90
23987;DHT22;12514;52.140;5.602;2022-07-09T13:36:29;22.90;99.90
23987;DHT22;12514;52.140;5.602;2022-07-09T13:38:55;22.60;99.90
23987;DHT22;12514;52.140;5.602;2022-07-09T13:41:20;22.50;99.90
23987;DHT22;12514;52.140;5.602;2022-07-09T13:43:46;22.70;99.90
23987;DHT22;12514;52.140;5.602;2022-07-09T13:46:12;22.90;99.90
23987;DHT22;12514;52.140;5.602;2022-07-09T13:48:38;23.00;99.90
23987;DHT22;12514;52.140;5.602;2022-07-09T13:51:04;23.10;99.90
23987;DHT22;12514;52.140;5.602;2022-07-09T13:56:51;22.70;99.90
23987;DHT22;12514;52.140;5.602;2022-07-09T13:59:17;23.00;99.90
23987;DHT22;12514;52.140;5.602;2022-07-09T14:01:43;23.00;99.90
23987;DHT22;12514;52.140;5.602;2022-07-09T14:04:08;22.50;99.90
23987;DHT22;12514;52.140;5.602;2022-07-09T14:06:34;22.10;99.90
23987;DHT22;12514;52.140;5.602;2022-07-09T14:08:59;21.70;99.90
23987;DHT22;12514;52.140;5.602;2022-07-09T14:11:25;22.10;99.90
23987;DHT22;12514;52.140;5.602;2022-07-09T14:13:51;22.30;99.90
23987;DHT22;12514;52.140;5.602;2022-07-09T14:16:18;22.40;99.90
23987;DHT22;12514;52.140;5.602;2022-07-09T14:18:44;22.60;99.90
23987;DHT22;12514;52.140;5.602;2022-07-09T14:21:10;23.00;99.90
23987;DHT22;12514;52.140;5.602;2022-07-09T14:26:58;22.50;99.90
23987;DHT22;12514;52.140;5.602;2022-07-09T14:29:23;23.00;99.90
23987;DHT22;12514;52.140;5.602;2022-07-09T14:31:49;23.00;99.90
23987;DHT22;12514;52.140;5.602;2022-07-09T14:34:15;22.70;99.90
23987;DHT22;12514;52.140;5.602;2022-07-09T14:36:41;22.70;99.90
23987;DHT22;12514;52.140;5.602;2022-07-09T14:39:07;22.80;99.90
23987;DHT22;12514;52.140;5.602;2022-07-09T14:41:32;22.70;99.90
23987;DHT22;12514;52.140;5.602;2022-07-09T14:43:59;22.50;99.90
23987;DHT22;12514;52.140;5.602;2022-07-09T14:46:34;22.30;99.90
23987;DHT22;12514;52.140;5.602;2022-07-09T14:49:00;22.30;99.90
23987;DHT22;12514;52.140;5.602;2022-07-09T14:51:26;22.60;99.90
23987;DHT22;12514;52.140;5.602;2022-07-09T14:53:52;22.40;99.90
23987;DHT22;12514;52.140;5.602;2022-07-09T14:56:17;22.70;99.90
23987;DHT22;12514;52.140;5.602;2022-07-09T14:58:43;22.70;99.90
23987;DHT22;12514;52.140;5.602;2022-07-09T15:01:08;22.50;99.90
23987;DHT22;12514;52.140;5.602;2022-07-09T15:03:34;22.20;99.90
23987;DHT22;12514;52.140;5.602;2022-07-09T15:06:00;22.20;99.90
23987;DHT22;12514;52.140;5.602;2022-07-09T15:08:25;22.30;99.90
23987;DHT22;12514;52.140;5.602;2022-07-09T15:10:51;21.80;99.90
23987;DHT22;12514;52.140;5.602;2022-07-09T15:13:16;21.90;99.90
23987;DHT22;12514;52.140;5.602;2022-07-09T15:15:42;21.90;99.90
23987;DHT22;12514;52.140;5.602;2022-07-09T15:18:08;21.90;99.90
23987;DHT22;12514;52.140;5.602;2022-07-09T15:20:34;21.70;99.90
23987;DHT22;12514;52.140;5.602;2022-07-09T15:23:00;21.80;99.90
23987;DHT22;12514;52.140;5.602;2022-07-09T15:25:29;22.00;99.90
23987;DHT22;12514;52.140;5.602;2022-07-09T15:27:55;22.30;99.90
23987;DHT22;12514;52.140;5.602;2022-07-09T15:30:21;22.50;99.90
23987;DHT22;12514;52.140;5.602;2022-07-09T15:32:47;22.50;99.90
23987;DHT22;12514;52.140;5.602;2022-07-09T15:35:13;21.90;99.90
23987;DHT22;12514;52.140;5.602;2022-07-09T15:37:39;21.70;99.90
23987;DHT22;12514;52.140;5.602;2022-07-09T15:40:07;21.60;99.90
23987;DHT22;12514;52.140;5.602;2022-07-09T15:42:33;21.40;99.90
23987;DHT22;12514;52.140;5.602;2022-07-09T15:44:58;21.10;99.90
23987;DHT22;12514;52.140;5.602;2022-07-09T15:47:24;21.00;99.90
23987;DHT22;12514;52.140;5.602;2022-07-09T15:49:49;20.90;99.90
23987;DHT22;12514;52.140;5.602;2022-07-09T15:52:15;21.10;99.90
23987;DHT22;12514;52.140;5.602;2022-07-09T15:54:41;21.30;99.90
23987;DHT22;12514;52.140;5.602;2022-07-09T15:57:07;21.30;99.90
23987;DHT22;12514;52.140;5.602;2022-07-09T15:59:32;21.40;99.90
23987;DHT22;12514;52.140;5.602;2022-07-09T16:01:58;21.10;99.90
23987;DHT22;12514;52.140;5.602;2022-07-09T16:04:24;21.50;99.90
23987;DHT22;12514;52.140;5.602;2022-07-09T16:10:11;21.10;99.90
23987;DHT22;12514;52.140;5.602;2022-07-09T16:12:40;21.50;99.90
23987;DHT22;12514;52.140;5.602;2022-07-09T16:15:26;21.60;99.90
23987;DHT22;12514;52.140;5.602;2022-07-09T16:17:53;21.10;99.90
23987;DHT22;12514;52.140;5.602;2022-07-09T16:20:19;20.90;99.90
23987;DHT22;12514;52.140;5.602;2022-07-09T16:26:07;20.50;99.90
23987;DHT22;12514;52.140;5.602;2022-07-09T16:28:32;20.30;99.90
23987;DHT22;12514;52.140;5.602;2022-07-09T16:30:58;20.40;99.90
23987;DHT22;12514;52.140;5.602;2022-07-09T16:33:24;20.30;99.90
23987;DHT22;12514;52.140;5.602;2022-07-09T16:35:50;20.30;99.90
23987;DHT22;12514;52.140;5.602;2022-07-09T16:41:37;20.30;99.90
23987;DHT22;12514;52.140;5.602;2022-07-09T16:44:03;20.40;99.90
23987;DHT22;12514;52.140;5.602;2022-07-09T16:46:29;20.40;99.90
23987;DHT22;12514;52.140;5.602;2022-07-09T16:48:57;20.30;99.90
23987;DHT22;12514;52.140;5.602;2022-07-09T16:51:22;20.20;99.90
23987;DHT22;12514;52.140;5.602;2022-07-09T16:57:09;19.70;99.90
23987;DHT22;12514;52.140;5.602;2022-07-09T16:59:35;19.50;99.90
23987;DHT22;12514;52.140;5.602;2022-07-09T17:02:01;19.50;99.90
23987;DHT22;12514;52.140;5.602;2022-07-09T17:04:27;19.50;99.90
23987;DHT22;12514;52.140;5.602;2022-07-09T17:06:53;19.30;99.90